HORACE LAKE: From 06/20/2019 17:00 to 08/20/2019 00:00

Date LAKE ELEVATION [FT] PRECIPITATION INCREMENT [IN] AIR TEMPERATURE [F] RELATIVE HUMIDITY [%] RELEASE [CFS]
08/19/2019 18:00 655.49 0.00 81.5 71.0 --
08/19/2019 17:00 655.50 0.01 74.8 88.0 --
08/19/2019 16:00 655.50 0.00 84.9 59.0 --
08/19/2019 15:00 655.51 0.00 82.8 59.0 --
08/19/2019 14:00 655.51 0.00 80.3 66.0 --
08/19/2019 13:00 655.51 0.00 80.3 66.0 --
08/19/2019 12:00 655.52 0.00 77.3 71.0 --
08/19/2019 11:00 655.52 0.00 74.3 84.0 --
08/19/2019 10:00 655.51 0.00 71.4 100.0 --
08/19/2019 09:00 655.51 0.00 67.1 100.0 --
08/19/2019 08:00 655.51 0.00 67.1 100.0 --
08/19/2019 07:00 655.52 0.00 67.9 100.0 --
08/19/2019 06:00 655.53 0.00 68.0 100.0 --
08/19/2019 05:00 655.52 0.00 69.1 100.0 --
08/19/2019 04:00 655.53 0.00 69.2 100.0 --
08/19/2019 03:00 655.53 0.00 69.2 100.0 --
08/19/2019 02:00 655.53 0.39 69.4 100.0 --
08/19/2019 01:00 655.50 0.00 73.2 100.0 --
08/19/2019 00:00 655.50 0.00 73.4 100.0 --
08/18/2019 23:00 655.51 0.00 72.1 100.0 --
08/18/2019 22:00 655.51 0.00 72.8 100.0 --
08/18/2019 21:00 655.51 0.00 75.3 91.0 --
08/18/2019 20:00 655.51 0.00 75.3 91.0 --
08/18/2019 19:00 655.52 0.00 83.3 63.0 --
08/18/2019 18:00 655.52 0.00 83.7 45.0 --
08/18/2019 17:00 655.52 0.00 83.7 45.0 --
08/18/2019 16:00 655.52 0.00 82.5 51.0 --
08/18/2019 15:00 655.51 0.00 78.8 72.0 --
08/18/2019 14:00 655.52 0.00 76.5 84.0 --
08/18/2019 13:00 655.53 0.00 71.6 98.0 --
08/18/2019 12:00 655.53 0.00 71.6 98.0 --
08/18/2019 11:00 655.54 0.00 71.2 100.0 --
08/18/2019 10:00 655.53 0.00 64.6 100.0 --
08/18/2019 09:00 655.53 0.00 63.7 100.0 --
08/18/2019 08:00 655.53 0.00 64.2 100.0 --
08/18/2019 07:00 655.53 0.00 64.2 100.0 --
08/18/2019 06:00 655.54 0.00 65.3 100.0 --
08/18/2019 05:00 655.54 0.00 65.7 100.0 --
08/18/2019 04:00 655.53 0.00 66.9 100.0 --
08/18/2019 03:00 655.54 0.00 67.3 100.0 --
08/18/2019 02:00 655.54 0.00 67.3 100.0 --
08/18/2019 01:00 655.55 0.01 66.6 100.0 --
08/18/2019 00:00 655.50 0.71 66.7 100.0 --
08/17/2019 23:00 655.47 0.77 70.2 100.0 --
08/17/2019 22:00 655.41 0.74 71.0 100.0 --
08/17/2019 21:00 655.38 0.00 73.7 93.0 --
08/17/2019 20:00 655.37 0.00 75.4 86.0 --
08/17/2019 19:00 655.38 0.00 78.3 75.0 --
08/17/2019 18:00 655.38 0.00 77.0 77.0 --
08/17/2019 17:00 655.38 0.00 77.3 76.0 --
08/17/2019 16:00 655.38 0.00 77.3 76.0 --
08/17/2019 15:00 655.38 0.00 75.7 80.0 --
08/17/2019 14:00 655.38 0.00 73.0 85.0 --
08/17/2019 13:00 655.38 0.00 70.2 96.0 --
08/17/2019 12:00 655.37 0.00 68.1 100.0 --
08/17/2019 11:00 655.37 0.00 68.1 100.0 --
08/17/2019 10:00 655.38 0.00 66.9 100.0 --
08/17/2019 09:00 655.38 0.00 65.0 100.0 --
08/17/2019 08:00 655.38 0.00 65.2 100.0 --
08/17/2019 07:00 655.38 0.00 65.4 100.0 --
08/17/2019 06:00 655.38 0.00 64.9 100.0 --
08/17/2019 05:00 655.38 0.00 65.8 100.0 --
08/17/2019 04:00 655.38 0.00 66.2 100.0 --
08/17/2019 03:00 655.38 0.00 66.5 100.0 --
08/17/2019 02:00 655.37 0.00 67.0 96.0 --
08/17/2019 01:00 655.37 0.00 67.5 93.0 --
08/17/2019 00:00 655.38 0.00 67.4 98.0 --
08/16/2019 23:00 655.38 0.00 67.4 98.0 --
08/16/2019 22:00 655.38 0.00 69.4 88.0 --
08/16/2019 21:00 655.38 0.00 72.6 80.0 --
08/16/2019 20:00 655.38 0.00 72.6 80.0 --
08/16/2019 19:00 655.38 0.00 76.6 65.0 --
08/16/2019 18:00 655.38 0.00 79.0 56.0 --
08/16/2019 17:00 655.39 0.00 79.6 53.0 --
08/16/2019 16:00 655.39 0.00 76.9 61.0 --
08/16/2019 15:00 655.39 0.00 75.4 67.0 --
08/16/2019 14:00 655.39 0.00 73.2 77.0 --
08/16/2019 13:00 655.39 0.00 68.5 100.0 --
08/16/2019 12:00 655.39 0.00 66.2 100.0 --
08/16/2019 11:00 655.38 0.00 64.0 100.0 --
08/16/2019 10:00 655.38 0.00 64.0 100.0 --
08/16/2019 09:00 655.39 0.00 62.8 100.0 --
08/16/2019 08:00 655.38 0.00 61.9 100.0 --
08/16/2019 07:00 655.38 0.01 62.4 100.0 --
08/16/2019 06:00 655.38 0.00 62.4 100.0 --
08/16/2019 05:00 655.38 0.00 62.4 100.0 --
08/16/2019 04:00 655.38 0.01 63.4 100.0 --
08/16/2019 03:00 655.38 0.00 62.9 100.0 --
08/16/2019 02:00 655.39 0.00 62.6 100.0 --
08/16/2019 01:00 655.39 0.00 63.0 100.0 --
08/16/2019 00:00 655.39 0.00 63.0 100.0 --
08/15/2019 23:00 655.39 0.00 63.5 100.0 --
08/15/2019 22:00 655.38 0.00 66.3 100.0 --
08/15/2019 21:00 655.39 0.00 68.8 100.0 --
08/15/2019 20:00 655.41 0.00 68.2 100.0 --
08/15/2019 19:00 655.41 0.21 68.2 100.0 --
08/15/2019 18:00 655.37 0.00 74.0 68.0 --
08/15/2019 17:00 655.38 0.00 76.9 62.0 --
08/15/2019 16:00 655.37 0.00 76.2 60.0 --
08/15/2019 15:00 655.36 0.00 73.0 63.0 --
08/15/2019 14:00 655.36 0.00 73.0 63.0 --
08/15/2019 13:00 655.37 0.00 72.3 62.0 --
08/15/2019 12:00 655.38 0.00 68.4 73.0 --
08/15/2019 11:00 655.37 0.00 63.9 90.0 --
08/15/2019 10:00 655.37 0.00 61.6 100.0 --
08/15/2019 09:00 655.37 0.00 61.6 100.0 --
08/15/2019 08:00 655.37 0.00 58.4 100.0 --
08/15/2019 07:00 655.37 0.00 59.0 100.0 --
08/15/2019 06:00 655.38 0.00 59.5 100.0 --
08/15/2019 05:00 655.36 0.00 58.4 100.0 --
08/15/2019 04:00 655.36 0.00 58.4 100.0 --
08/15/2019 03:00 655.38 0.00 59.6 100.0 --
08/15/2019 02:00 655.37 0.00 59.7 100.0 --
08/15/2019 01:00 655.37 0.00 61.6 100.0 --
08/15/2019 00:00 655.38 0.00 63.3 100.0 --
08/14/2019 23:00 655.37 0.00 65.5 90.0 --
08/14/2019 22:00 655.37 0.00 68.6 78.0 --
08/14/2019 21:00 655.37 0.00 72.4 70.0 --
08/14/2019 20:00 655.37 0.00 76.0 59.0 --
08/14/2019 19:00 655.37 0.00 78.3 45.0 --
08/14/2019 18:00 655.37 0.00 78.3 45.0 --
08/14/2019 17:00 655.38 0.00 77.3 50.0 --
08/14/2019 16:00 655.38 0.00 75.7 49.0 --
08/14/2019 15:00 655.38 0.00 76.1 51.0 --
08/14/2019 14:00 655.37 0.00 71.9 57.0 --
08/14/2019 13:00 655.37 0.00 71.2 56.0 --
08/14/2019 12:00 655.38 0.00 69.4 62.0 --
08/14/2019 11:00 655.38 0.00 66.3 75.0 --
08/14/2019 10:00 655.38 0.00 64.4 100.0 --
08/14/2019 09:00 655.38 0.00 60.8 100.0 --
08/14/2019 08:00 655.38 0.00 60.8 100.0 --
08/14/2019 07:00 655.38 0.00 60.0 100.0 --
08/14/2019 06:00 655.38 0.00 60.5 100.0 --
08/14/2019 05:00 655.38 0.00 60.8 100.0 --
08/14/2019 04:00 655.38 0.00 63.3 100.0 --
08/14/2019 03:00 655.38 0.00 63.3 100.0 --
08/14/2019 02:00 655.37 0.00 64.8 100.0 --
08/14/2019 01:00 655.38 0.00 65.9 100.0 --
08/14/2019 00:00 655.37 0.00 68.1 100.0 --
08/13/2019 23:00 655.38 0.00 70.5 94.0 --
08/13/2019 22:00 655.38 0.00 70.5 94.0 --
08/13/2019 21:00 655.38 0.00 73.3 86.0 --
08/13/2019 20:00 655.38 0.00 79.2 65.0 --
08/13/2019 19:00 655.38 0.00 79.0 63.0 --
08/13/2019 18:00 655.38 0.00 77.6 67.0 --
08/13/2019 17:00 655.38 0.00 77.6 67.0 --
08/13/2019 16:00 655.39 0.00 75.0 74.0 --
08/13/2019 15:00 655.38 0.00 74.3 74.0 --
08/13/2019 14:00 655.38 0.00 75.2 73.0 --
08/13/2019 13:00 655.38 0.00 75.6 68.0 --
08/13/2019 12:00 655.39 0.00 74.4 70.0 --
08/13/2019 11:00 655.38 0.00 72.4 83.0 --
08/13/2019 10:00 655.39 0.00 68.8 97.0 --
08/13/2019 09:00 655.38 0.00 66.4 100.0 --
08/13/2019 08:00 655.38 0.00 66.1 100.0 --
08/13/2019 07:00 655.38 0.01 66.1 100.0 --
08/13/2019 06:00 655.37 0.00 70.8 75.0 --
08/13/2019 05:00 655.38 0.00 68.4 83.0 --
08/13/2019 04:00 655.38 0.00 71.0 72.0 --
08/13/2019 03:00 655.38 0.00 72.7 68.0 --
08/13/2019 02:00 655.38 0.00 72.7 68.0 --
08/13/2019 01:00 655.38 0.00 72.7 68.0 --
08/13/2019 00:00 655.38 0.00 69.7 77.0 --
08/12/2019 23:00 655.38 0.00 72.6 65.0 --
08/12/2019 22:00 655.38 0.00 76.4 55.0 --
08/12/2019 21:00 655.38 0.00 79.5 48.0 --
08/12/2019 20:00 655.39 0.00 80.8 46.0 --
08/12/2019 19:00 655.38 0.00 81.0 42.0 --
08/12/2019 18:00 655.39 0.00 80.1 43.0 --
08/12/2019 17:00 655.38 0.00 79.1 45.0 --
08/12/2019 16:00 655.39 0.00 78.9 49.0 --
08/12/2019 15:00 655.39 0.00 78.1 50.0 --
08/12/2019 14:00 655.38 0.00 76.8 51.0 --
08/12/2019 13:00 655.38 0.00 74.0 57.0 --
08/12/2019 12:00 655.39 0.00 70.5 61.0 --
08/12/2019 11:00 655.39 0.00 70.5 61.0 --
08/12/2019 10:00 655.39 0.00 66.7 70.0 --
08/12/2019 09:00 655.40 0.00 59.2 98.0 --
08/12/2019 08:00 655.39 0.00 58.0 100.0 --
08/12/2019 07:00 655.39 0.00 58.4 100.0 --
08/12/2019 06:00 655.39 0.00 58.4 100.0 --
08/12/2019 05:00 655.40 0.00 58.5 100.0 --
08/12/2019 04:00 655.39 0.00 59.0 100.0 --
08/12/2019 03:00 655.38 0.00 58.9 100.0 --
08/12/2019 02:00 655.39 0.00 60.1 99.0 --
08/12/2019 01:00 655.39 0.00 60.1 99.0 --
08/12/2019 00:00 655.39 0.00 60.8 97.0 --
08/11/2019 23:00 655.39 0.00 62.8 90.0 --
08/11/2019 22:00 655.40 0.00 63.5 87.0 --
08/11/2019 21:00 655.39 0.00 71.0 66.0 --
08/11/2019 20:00 655.39 0.00 71.0 66.0 --
08/11/2019 19:00 655.40 0.00 74.4 48.0 --
08/11/2019 18:00 655.39 0.00 74.1 50.0 --
08/11/2019 17:00 655.39 0.00 73.9 45.0 --
08/11/2019 16:00 655.39 0.00 70.9 50.0 --
08/11/2019 15:00 655.39 0.00 70.9 50.0 --
08/11/2019 14:00 655.38 0.00 70.4 50.0 --
08/11/2019 13:00 655.38 0.00 69.2 50.0 --
08/11/2019 12:00 655.40 0.00 68.0 54.0 --
08/11/2019 11:00 655.41 0.00 62.5 71.0 --
08/11/2019 10:00 655.41 0.00 62.5 71.0 --
08/11/2019 09:00 655.40 0.00 60.4 79.0 --
08/11/2019 08:00 655.40 0.00 54.7 99.0 --
08/11/2019 07:00 655.39 0.00 52.1 100.0 --
08/11/2019 06:00 655.40 0.00 57.1 92.0 --
08/11/2019 05:00 655.40 0.00 57.1 92.0 --
08/11/2019 04:00 655.40 0.00 54.1 97.0 --
08/11/2019 03:00 655.41 0.00 57.0 90.0 --
08/11/2019 02:00 655.40 0.00 53.7 100.0 --
08/11/2019 01:00 655.41 0.00 54.9 88.0 --
08/11/2019 00:00 655.41 0.00 54.9 88.0 --
08/10/2019 23:00 655.40 0.00 60.0 72.0 --
08/10/2019 22:00 655.40 0.00 62.2 68.0 --
08/10/2019 21:00 655.40 0.00 63.5 63.0 --
08/10/2019 20:00 655.41 0.00 69.7 49.0 --
08/10/2019 19:00 655.40 0.00 70.7 49.0 --
08/10/2019 18:00 655.39 0.00 70.6 46.0 --
08/10/2019 17:00 655.39 0.03 70.6 46.0 --
08/10/2019 16:00 655.40 0.00 69.0 60.0 --
08/10/2019 15:00 655.41 0.00 70.3 54.0 --
08/10/2019 14:00 655.41 0.00 70.8 53.0 --
08/10/2019 13:00 655.41 0.00 69.0 61.0 --
08/10/2019 12:00 655.41 0.00 67.2 65.0 --
08/10/2019 11:00 655.41 0.00 65.1 71.0 --
08/10/2019 10:00 655.42 0.00 63.3 75.0 --
08/10/2019 09:00 655.41 0.00 60.0 79.0 --
08/10/2019 08:00 655.42 0.00 61.6 76.0 --
08/10/2019 07:00 655.42 0.00 61.7 75.0 --
08/10/2019 06:00 655.42 0.00 63.6 70.0 --
08/10/2019 05:00 655.42 0.00 64.5 70.0 --
08/10/2019 04:00 655.42 0.00 64.5 70.0 --
08/10/2019 03:00 655.41 0.00 56.8 100.0 --
08/10/2019 02:00 655.42 0.00 60.0 89.0 --
08/10/2019 01:00 655.41 0.00 65.2 76.0 --
08/10/2019 00:00 655.42 0.00 68.6 61.0 --
08/09/2019 23:00 655.42 0.00 68.6 61.0 --
08/09/2019 22:00 655.41 0.00 69.5 59.0 --
08/09/2019 21:00 655.44 0.00 75.9 44.0 --
08/09/2019 20:00 655.42 0.00 77.4 42.0 --
08/09/2019 19:00 655.42 0.00 77.8 44.0 --
08/09/2019 18:00 655.42 0.00 77.8 44.0 --
08/09/2019 17:00 655.41 0.00 77.4 43.0 --
08/09/2019 16:00 655.42 0.00 76.1 46.0 --
08/09/2019 15:00 655.43 0.00 75.4 45.0 --
08/09/2019 14:00 655.42 0.00 74.5 53.0 --
08/09/2019 13:00 655.42 0.00 74.5 53.0 --
08/09/2019 12:00 655.42 0.00 72.5 59.0 --
08/09/2019 11:00 655.44 0.00 69.6 73.0 --
08/09/2019 10:00 655.43 0.00 67.9 84.0 --
08/09/2019 09:00 655.44 0.00 65.8 94.0 --
08/09/2019 08:00 655.44 0.00 65.8 94.0 --
08/09/2019 07:00 655.43 0.00 65.9 91.0 --
08/09/2019 06:00 655.44 0.00 62.3 100.0 --
08/09/2019 05:00 655.43 0.00 64.7 92.0 --
08/09/2019 04:00 655.44 0.00 65.7 87.0 --
08/09/2019 03:00 655.44 0.00 65.7 87.0 --
08/09/2019 02:00 655.42 0.00 65.8 91.0 --
08/09/2019 01:00 655.43 0.00 66.1 98.0 --
08/09/2019 00:00 655.44 0.01 67.4 91.0 --
08/08/2019 23:00 655.43 0.00 67.3 100.0 --
08/08/2019 22:00 655.43 0.02 67.3 100.0 --
08/08/2019 21:00 655.42 0.00 71.9 81.0 --
08/08/2019 20:00 655.44 0.00 76.0 72.0 --
08/08/2019 19:00 655.44 0.00 81.6 48.0 --
08/08/2019 18:00 655.45 0.00 81.3 51.0 --
08/08/2019 17:00 655.44 0.00 80.6 54.0 --
08/08/2019 16:00 655.42 0.00 78.3 62.0 --
08/08/2019 15:00 655.42 0.00 78.3 62.0 --
08/08/2019 14:00 655.43 0.01 76.0 70.0 --
08/08/2019 13:00 655.43 0.00 73.3 80.0 --
08/08/2019 12:00 655.43 0.00 71.4 91.0 --
08/08/2019 11:00 655.42 0.00 69.9 100.0 --
08/08/2019 10:00 655.44 0.00 67.4 100.0 --
08/08/2019 09:00 655.44 0.00 66.6 100.0 --
08/08/2019 08:00 655.42 0.00 67.0 100.0 --
08/08/2019 07:00 655.43 0.00 66.1 100.0 --
08/08/2019 06:00 655.42 0.00 66.9 100.0 --
08/08/2019 05:00 655.43 0.00 66.8 100.0 --
08/08/2019 04:00 655.42 0.01 66.9 100.0 --
08/08/2019 03:00 655.42 0.00 66.9 100.0 --
08/08/2019 02:00 655.43 0.08 67.0 100.0 --
08/08/2019 01:00 655.42 0.00 67.6 100.0 --
08/08/2019 00:00 655.42 0.07 67.6 100.0 --
08/07/2019 23:00 655.41 0.08 68.0 100.0 --
08/07/2019 22:00 655.40 0.00 71.2 100.0 --
08/07/2019 21:00 655.40 0.00 71.2 100.0 --
08/07/2019 20:00 655.40 0.06 71.6 100.0 --
08/07/2019 19:00 655.41 0.28 71.3 100.0 --
08/07/2019 18:00 655.36 0.00 74.7 79.0 --
08/07/2019 17:00 655.36 0.00 82.7 63.0 --
08/07/2019 16:00 655.37 0.00 79.3 70.0 --
08/07/2019 15:00 655.38 0.00 77.1 72.0 --
08/07/2019 14:00 655.38 0.00 77.1 72.0 --
08/07/2019 13:00 655.38 0.00 75.3 76.0 --
08/07/2019 12:00 655.37 0.00 73.6 82.0 --
08/07/2019 11:00 655.37 0.00 71.0 91.0 --
08/07/2019 10:00 655.36 0.00 68.7 100.0 --
08/07/2019 09:00 655.36 0.00 68.7 100.0 --
08/07/2019 08:00 655.37 0.00 62.7 100.0 --
08/07/2019 07:00 655.36 0.00 63.1 100.0 --
08/07/2019 06:00 655.36 0.00 63.1 100.0 --
08/07/2019 05:00 655.37 0.00 65.4 100.0 --
08/07/2019 04:00 655.37 0.00 63.3 100.0 --
08/07/2019 03:00 655.37 0.00 65.3 100.0 --
08/07/2019 02:00 655.37 0.00 64.5 100.0 --
08/07/2019 01:00 655.37 0.00 64.5 100.0 --
08/07/2019 00:00 655.37 0.00 65.9 100.0 --
08/06/2019 23:00 655.37 0.00 67.8 87.0 --
08/06/2019 22:00 655.37 0.00 70.1 81.0 --
08/06/2019 21:00 655.36 0.00 76.4 66.0 --
08/06/2019 20:00 655.36 0.00 76.4 66.0 --
08/06/2019 19:00 655.37 0.00 76.3 59.0 --
08/06/2019 18:00 655.37 0.00 77.6 56.0 --
08/06/2019 17:00 655.38 0.00 80.5 49.0 --
08/06/2019 16:00 655.37 0.00 79.5 51.0 --
08/06/2019 15:00 655.37 0.00 79.5 51.0 --
08/06/2019 14:00 655.39 0.00 79.3 52.0 --
08/06/2019 13:00 655.38 0.00 76.8 56.0 --
08/06/2019 12:00 655.38 0.00 71.9 73.0 --
08/06/2019 11:00 655.37 0.00 67.3 86.0 --
08/06/2019 10:00 655.37 0.00 67.3 86.0 --
08/06/2019 09:00 655.37 0.00 60.7 100.0 --
08/06/2019 08:00 655.37 0.00 54.9 100.0 --
08/06/2019 07:00 655.37 0.00 54.9 100.0 --
08/06/2019 06:00 655.36 0.00 56.2 100.0 --
08/06/2019 05:00 655.38 0.00 58.5 100.0 --
08/06/2019 04:00 655.38 0.00 58.9 100.0 --
08/06/2019 03:00 655.38 0.00 59.2 97.0 --
08/06/2019 02:00 655.37 0.00 60.7 97.0 --
08/06/2019 01:00 655.38 0.00 60.9 95.0 --
08/06/2019 00:00 655.38 0.00 64.0 82.0 --
08/05/2019 23:00 655.38 0.00 65.8 83.0 --
08/05/2019 22:00 655.37 0.00 67.7 73.0 --
08/05/2019 21:00 655.37 0.00 67.7 73.0 --
08/05/2019 20:00 655.36 0.00 73.3 58.0 --
08/05/2019 19:00 655.37 0.00 78.3 38.0 --
08/05/2019 18:00 655.37 0.00 78.3 38.0 --
08/05/2019 17:00 655.37 0.00 77.5 41.0 --
08/05/2019 16:00 655.38 0.00 74.4 39.0 --
08/05/2019 15:00 655.37 0.00 72.9 45.0 --
08/05/2019 14:00 655.38 0.00 71.2 42.0 --
08/05/2019 13:00 655.38 0.00 71.2 42.0 --
08/05/2019 12:00 655.38 0.00 69.7 45.0 --
08/05/2019 11:00 655.37 0.00 64.2 65.0 --
08/05/2019 10:00 655.39 0.00 58.2 79.0 --
08/05/2019 09:00 655.39 0.00 54.1 97.0 --
08/05/2019 08:00 655.39 0.00 54.1 97.0 --
08/05/2019 07:00 655.39 0.00 52.9 97.0 --
08/05/2019 06:00 655.39 0.00 52.9 97.0 --
08/05/2019 05:00 655.39 0.00 53.3 86.0 --
08/05/2019 04:00 655.39 0.00 55.0 82.0 --
08/05/2019 03:00 655.38 0.00 56.9 82.0 --
08/05/2019 02:00 655.38 0.00 58.7 72.0 --
08/05/2019 01:00 655.39 0.00 59.5 67.0 --
08/05/2019 00:00 655.38 0.00 61.9 70.0 --
08/04/2019 23:00 655.39 0.00 64.4 62.0 --
08/04/2019 22:00 655.39 0.00 64.4 62.0 --
08/04/2019 21:00 655.39 0.00 66.3 59.0 --
08/04/2019 20:00 655.40 0.00 76.3 36.0 --
08/04/2019 19:00 655.38 0.00 78.1 32.0 --
08/04/2019 18:00 655.38 0.00 78.2 43.0 --
08/04/2019 17:00 655.38 0.00 78.2 43.0 --
08/04/2019 16:00 655.39 0.00 77.1 53.0 --
08/04/2019 15:00 655.39 0.00 75.7 58.0 --
08/04/2019 14:00 655.41 0.00 77.4 57.0 --
08/04/2019 13:00 655.40 0.00 73.8 62.0 --
08/04/2019 12:00 655.40 0.00 73.8 62.0 --
08/04/2019 11:00 655.38 0.00 72.1 73.0 --
08/04/2019 10:00 655.40 0.00 67.0 100.0 --
08/04/2019 09:00 655.39 0.00 64.0 100.0 --
08/04/2019 08:00 655.39 0.00 63.4 100.0 --
08/04/2019 07:00 655.40 0.00 63.9 100.0 --
08/04/2019 06:00 655.39 0.00 64.4 100.0 --
08/04/2019 05:00 655.40 0.00 66.3 100.0 --
08/04/2019 04:00 655.38 0.00 66.9 100.0 --
08/04/2019 03:00 655.39 0.00 67.7 100.0 --
08/04/2019 02:00 655.39 0.00 67.7 100.0 --
08/04/2019 01:00 655.40 0.00 67.0 100.0 --
08/04/2019 00:00 655.40 0.00 69.2 100.0 --
08/03/2019 23:00 655.39 0.00 69.8 95.0 --
08/03/2019 22:00 655.39 0.00 74.9 76.0 --
08/03/2019 21:00 655.39 0.00 74.9 76.0 --
08/03/2019 20:00 655.40 0.00 76.2 72.0 --
08/03/2019 19:00 655.39 0.00 76.5 70.0 --
08/03/2019 18:00 655.40 0.00 77.0 65.0 --
08/03/2019 17:00 655.40 0.00 79.6 62.0 --
08/03/2019 16:00 655.41 0.00 77.6 67.0 --
08/03/2019 15:00 655.40 0.00 77.7 68.0 --
08/03/2019 14:00 655.40 0.00 74.5 88.0 --
08/03/2019 13:00 655.40 0.01 68.3 100.0 --
08/03/2019 12:00 655.38 0.00 66.7 100.0 --
08/03/2019 11:00 655.38 0.01 66.7 100.0 --
08/03/2019 10:00 655.39 0.23 65.8 100.0 --
08/03/2019 09:00 655.39 0.00 61.0 100.0 --
08/03/2019 08:00 655.40 0.00 61.8 100.0 --
08/03/2019 07:00 655.39 0.00 63.5 100.0 --
08/03/2019 06:00 655.39 0.00 63.5 100.0 --
08/03/2019 05:00 655.40 0.00 62.8 100.0 --
08/03/2019 04:00 655.40 0.00 62.7 100.0 --
08/03/2019 03:00 655.40 0.00 62.8 96.0 --
08/03/2019 02:00 655.40 0.00 63.0 93.0 --
08/03/2019 01:00 655.40 0.00 63.0 93.0 --
08/03/2019 00:00 655.39 0.00 64.6 89.0 --
08/02/2019 23:00 655.39 0.00 68.1 76.0 --
08/02/2019 22:00 655.39 0.00 68.6 74.0 --
08/02/2019 21:00 655.39 0.00 73.5 58.0 --
08/02/2019 20:00 655.39 0.00 73.5 58.0 --
08/02/2019 19:00 655.39 0.00 79.2 41.0 --
08/02/2019 18:00 655.39 0.00 80.7 31.0 --
08/02/2019 17:00 655.39 0.02 80.6 30.0 --
08/02/2019 16:00 655.40 0.00 78.8 34.0 --
08/02/2019 15:00 655.40 0.00 78.8 34.0 --
08/02/2019 14:00 655.38 0.00 77.0 33.0 --
08/02/2019 13:00 655.40 0.00 76.5 35.0 --
08/02/2019 12:00 655.40 0.00 75.4 55.0 --
08/02/2019 11:00 655.40 0.00 65.7 73.0 --
08/02/2019 10:00 655.40 0.00 65.7 73.0 --
08/02/2019 09:00 655.40 0.00 60.8 80.0 --
08/02/2019 08:00 655.40 0.00 55.5 100.0 --
08/02/2019 07:00 655.40 0.00 56.2 100.0 --
08/02/2019 06:00 655.40 0.00 57.2 100.0 --
08/02/2019 05:00 655.40 0.00 57.2 100.0 --
08/02/2019 04:00 655.40 0.00 58.7 94.0 --
08/02/2019 03:00 655.40 0.00 60.7 87.0 --
08/02/2019 02:00 655.40 0.00 61.8 84.0 --
08/02/2019 01:00 655.40 0.00 63.8 80.0 --
08/02/2019 00:00 655.40 0.00 63.8 80.0 --
08/01/2019 23:00 655.40 0.00 64.4 74.0 --
08/01/2019 22:00 655.40 0.00 70.0 64.0 --
08/01/2019 21:00 655.41 0.00 76.6 51.0 --
08/01/2019 20:00 655.40 0.00 79.2 39.0 --
08/01/2019 19:00 655.40 0.00 79.6 41.0 --
08/01/2019 18:00 655.39 0.00 79.6 45.0 --
08/01/2019 17:00 655.41 0.00 78.4 40.0 --
08/01/2019 16:00 655.41 0.00 78.4 40.0 --
08/01/2019 15:00 655.42 0.00 77.8 36.0 --
08/01/2019 14:00 655.41 0.00 76.7 45.0 --
08/01/2019 13:00 655.43 0.00 75.9 45.0 --
08/01/2019 12:00 655.42 0.00 73.8 57.0 --
08/01/2019 11:00 655.42 0.00 73.8 57.0 --
08/01/2019 10:00 655.41 0.00 71.9 68.0 --
08/01/2019 09:00 655.41 0.00 69.8 77.0 --
08/01/2019 08:00 655.42 0.00 67.9 88.0 --
08/01/2019 07:00 655.41 0.00 65.8 100.0 --
08/01/2019 06:00 655.41 0.00 66.0 100.0 --
08/01/2019 05:00 655.42 0.00 65.6 100.0 --
08/01/2019 04:00 655.42 0.00 66.0 100.0 --
08/01/2019 03:00 655.42 0.00 68.0 100.0 --
08/01/2019 02:00 655.41 0.00 68.8 99.0 --
08/01/2019 01:00 655.42 0.00 68.8 100.0 --
08/01/2019 00:00 655.41 0.00 68.5 100.0 --
07/31/2019 23:00 655.41 0.00 68.5 100.0 --
07/31/2019 22:00 655.41 0.00 69.9 93.0 --
07/31/2019 21:00 655.41 0.00 74.5 91.0 --
07/31/2019 20:00 655.42 0.00 76.1 85.0 --
07/31/2019 19:00 655.42 0.00 77.1 71.0 --
07/31/2019 18:00 655.42 0.00 77.1 71.0 --
07/31/2019 17:00 655.41 0.00 78.9 61.0 --
07/31/2019 16:00 655.42 0.00 81.5 58.0 --
07/31/2019 15:00 655.42 0.00 80.7 65.0 --
07/31/2019 14:00 655.42 0.00 81.5 60.0 --
07/31/2019 13:00 655.42 0.00 81.5 60.0 --
07/31/2019 12:00 655.42 0.00 78.6 71.0 --
07/31/2019 11:00 655.42 0.00 76.7 75.0 --
07/31/2019 10:00 655.42 0.00 75.3 81.0 --
07/31/2019 09:00 655.42 0.00 70.0 100.0 --
07/31/2019 08:00 655.42 0.00 68.7 100.0 --
07/31/2019 07:00 655.42 0.00 68.3 100.0 --
07/31/2019 06:00 655.43 0.00 68.8 100.0 --
07/31/2019 05:00 655.42 0.00 69.0 100.0 --
07/31/2019 04:00 655.43 0.00 69.3 100.0 --
07/31/2019 03:00 655.43 0.00 69.9 100.0 --
07/31/2019 02:00 655.42 0.00 72.0 89.0 --
07/31/2019 01:00 655.42 0.00 72.7 83.0 --
07/31/2019 00:00 655.42 0.00 73.6 76.0 --
07/30/2019 23:00 655.43 0.00 79.5 57.0 --
07/30/2019 22:00 655.42 0.00 79.3 61.0 --
07/30/2019 21:00 655.43 0.00 81.6 55.0 --
07/30/2019 20:00 655.43 0.00 81.2 71.0 --
07/30/2019 19:00 655.43 0.00 81.2 71.0 --
07/30/2019 18:00 655.43 0.00 89.7 43.0 --
07/30/2019 17:00 655.44 0.00 88.8 44.0 --
07/30/2019 16:00 655.44 0.00 87.7 44.0 --
07/30/2019 15:00 655.44 0.00 86.6 49.0 --
07/30/2019 14:00 655.44 0.00 86.6 49.0 --
07/30/2019 13:00 655.43 0.00 85.2 58.0 --
07/30/2019 12:00 655.44 0.00 81.3 65.0 --
07/30/2019 11:00 655.44 0.00 78.6 78.0 --
07/30/2019 10:00 655.43 0.00 73.4 95.0 --
07/30/2019 09:00 655.43 0.00 73.4 95.0 --
07/30/2019 08:00 655.44 0.00 68.4 100.0 --
07/30/2019 07:00 655.44 0.00 67.6 100.0 --
07/30/2019 06:00 655.43 0.00 67.4 100.0 --
07/30/2019 05:00 655.43 0.00 67.9 100.0 --
07/30/2019 04:00 655.43 0.00 67.9 100.0 --
07/30/2019 03:00 655.44 0.00 68.4 100.0 --
07/30/2019 02:00 655.44 0.00 69.9 98.0 --
07/30/2019 01:00 655.43 0.00 71.5 93.0 --
07/30/2019 00:00 655.43 0.00 72.4 90.0 --
07/29/2019 23:00 655.43 0.00 71.7 97.0 --
07/29/2019 22:00 655.44 0.00 75.0 83.0 --
07/29/2019 21:00 655.44 0.00 79.4 71.0 --
07/29/2019 20:00 655.43 0.00 85.2 50.0 --
07/29/2019 19:00 655.43 0.00 85.6 53.0 --
07/29/2019 18:00 655.43 0.00 85.6 53.0 --
07/29/2019 17:00 655.43 0.00 83.7 57.0 --
07/29/2019 16:00 655.44 0.00 83.9 52.0 --
07/29/2019 15:00 655.44 0.00 83.2 57.0 --
07/29/2019 14:00 655.43 0.00 82.8 54.0 --
07/29/2019 13:00 655.43 0.00 82.8 54.0 --
07/29/2019 12:00 655.45 0.00 81.0 62.0 --
07/29/2019 11:00 655.44 0.00 75.6 75.0 --
07/29/2019 10:00 655.45 0.00 71.3 92.0 --
07/29/2019 09:00 655.45 0.00 68.9 100.0 --
07/29/2019 08:00 655.45 0.00 68.9 100.0 --
07/29/2019 07:00 655.44 0.00 65.0 100.0 --
07/29/2019 06:00 655.45 0.00 65.8 100.0 --
07/29/2019 05:00 655.44 0.00 66.3 100.0 --
07/29/2019 04:00 655.44 0.00 66.8 100.0 --
07/29/2019 03:00 655.44 0.00 66.8 100.0 --
07/29/2019 02:00 655.43 0.00 68.2 99.0 --
07/29/2019 01:00 655.44 0.00 74.8 71.0 --
07/29/2019 00:00 655.45 0.00 77.8 67.0 --
07/28/2019 23:00 655.44 0.00 79.0 65.0 --
07/28/2019 22:00 655.44 0.00 79.0 65.0 --
07/28/2019 21:00 655.45 0.00 75.3 79.0 --
07/28/2019 20:00 655.45 0.00 84.3 48.0 --
07/28/2019 19:00 655.44 0.01 85.0 48.0 --
07/28/2019 18:00 655.46 0.00 84.5 49.0 --
07/28/2019 17:00 655.46 0.00 84.5 49.0 --
07/28/2019 16:00 655.45 0.00 84.7 47.0 --
07/28/2019 15:00 655.45 0.00 83.2 53.0 --
07/28/2019 14:00 655.45 0.00 82.6 53.0 --
07/28/2019 13:00 655.46 0.00 80.0 62.0 --
07/28/2019 12:00 655.46 0.00 80.0 62.0 --
07/28/2019 11:00 655.46 0.00 77.2 69.0 --
07/28/2019 10:00 655.46 0.00 69.6 95.0 --
07/28/2019 09:00 655.46 0.00 65.3 100.0 --
07/28/2019 08:00 655.46 0.00 64.2 100.0 --
07/28/2019 07:00 655.47 0.00 64.5 100.0 --
07/28/2019 06:00 655.46 0.00 65.0 100.0 --
07/28/2019 05:00 655.46 0.00 66.7 100.0 --
07/28/2019 04:00 655.46 0.00 67.2 100.0 --
07/28/2019 03:00 655.46 0.00 68.4 100.0 --
07/28/2019 02:00 655.46 0.00 68.4 100.0 --
07/28/2019 01:00 655.46 0.00 69.2 100.0 --
07/28/2019 00:00 655.46 0.00 69.1 95.0 --
07/27/2019 23:00 655.46 0.00 72.8 78.0 --
07/27/2019 22:00 655.47 0.00 75.8 72.0 --
07/27/2019 21:00 655.46 0.00 78.8 65.0 --
07/27/2019 20:00 655.48 0.00 82.2 53.0 --
07/27/2019 19:00 655.48 0.00 81.9 50.0 --
07/27/2019 18:00 655.48 0.00 82.4 54.0 --
07/27/2019 17:00 655.48 0.00 82.4 51.0 --
07/27/2019 16:00 655.48 0.00 82.4 51.0 --
07/27/2019 15:00 655.48 0.00 80.6 52.0 --
07/27/2019 14:00 655.49 0.00 80.3 59.0 --
07/27/2019 13:00 655.48 0.00 77.7 71.0 --
07/27/2019 12:00 655.48 0.00 73.0 77.0 --
07/27/2019 11:00 655.48 0.00 73.0 77.0 --
07/27/2019 10:00 655.49 0.00 69.0 94.0 --
07/27/2019 09:00 655.49 0.00 61.2 100.0 --
07/27/2019 08:00 655.49 0.00 59.5 100.0 --
07/27/2019 07:00 655.49 0.00 60.1 100.0 --
07/27/2019 06:00 655.49 0.00 60.1 100.0 --
07/27/2019 05:00 655.49 0.00 60.9 100.0 --
07/27/2019 04:00 655.49 0.00 63.5 100.0 --
07/27/2019 03:00 655.49 0.00 63.1 100.0 --
07/27/2019 02:00 655.49 0.00 65.0 100.0 --
07/27/2019 01:00 655.49 0.00 65.0 100.0 --
07/27/2019 00:00 655.49 0.00 65.3 100.0 --
07/26/2019 23:00 655.49 0.00 70.1 100.0 --
07/26/2019 22:00 655.50 0.00 71.4 88.0 --
07/26/2019 21:00 655.50 0.00 75.9 76.0 --
07/26/2019 20:00 655.50 0.00 75.9 76.0 --
07/26/2019 19:00 655.50 0.00 76.3 76.0 --
07/26/2019 18:00 655.51 0.00 74.6 78.0 --
07/26/2019 17:00 655.50 0.00 80.2 48.0 --
07/26/2019 16:00 655.51 0.00 80.0 55.0 --
07/26/2019 15:00 655.51 0.01 78.6 52.0 --
07/26/2019 14:00 655.51 0.00 78.6 53.0 --
07/26/2019 13:00 655.52 0.00 77.0 57.0 --
07/26/2019 12:00 655.52 0.00 77.0 57.0 --
07/26/2019 11:00 655.52 0.00 73.7 73.0 --
07/26/2019 10:00 655.52 0.00 63.3 100.0 --
07/26/2019 09:00 655.53 0.00 59.1 100.0 --
07/26/2019 08:00 655.52 0.00 58.5 100.0 --
07/26/2019 07:00 655.53 0.00 59.4 100.0 --
07/26/2019 06:00 655.53 0.00 60.2 100.0 --
07/26/2019 05:00 655.53 0.00 60.2 100.0 --
07/26/2019 04:00 655.53 0.00 60.9 100.0 --
07/26/2019 03:00 655.53 0.00 62.1 100.0 --
07/26/2019 02:00 655.53 0.00 63.4 100.0 --
07/26/2019 01:00 655.54 0.00 63.7 100.0 --
07/26/2019 00:00 655.54 0.00 63.7 100.0 --
07/25/2019 23:00 655.54 0.00 66.3 91.0 --
07/25/2019 22:00 655.54 0.00 69.6 89.0 --
07/25/2019 21:00 655.54 0.00 73.1 72.0 --
07/25/2019 20:00 655.54 0.00 76.5 64.0 --
07/25/2019 19:00 655.55 0.00 79.9 43.0 --
07/25/2019 18:00 655.55 0.00 78.6 45.0 --
07/25/2019 17:00 655.56 0.00 77.8 44.0 --
07/25/2019 16:00 655.55 0.00 77.2 46.0 --
07/25/2019 15:00 655.55 0.00 74.9 46.0 --
07/25/2019 14:00 655.55 0.00 73.9 50.0 --
07/25/2019 13:00 655.56 0.00 72.8 55.0 --
07/25/2019 12:00 655.54 0.00 72.5 64.0 --
07/25/2019 11:00 655.54 0.00 72.5 64.0 --
07/25/2019 10:00 655.55 0.00 66.7 79.0 --
07/25/2019 09:00 655.55 0.00 61.1 96.0 --
07/25/2019 08:00 655.54 0.00 56.4 100.0 --
07/25/2019 07:00 655.56 0.00 56.5 100.0 --
07/25/2019 06:00 655.56 0.00 56.5 100.0 --
07/25/2019 05:00 655.56 0.00 57.1 100.0 --
07/25/2019 04:00 655.56 0.00 57.9 100.0 --
07/25/2019 03:00 655.56 0.00 58.6 100.0 --
07/25/2019 02:00 655.56 0.00 60.1 100.0 --
07/25/2019 01:00 655.57 0.00 61.6 92.0 --
07/25/2019 00:00 655.57 0.00 63.1 86.0 --
07/24/2019 23:00 655.57 0.00 65.0 83.0 --
07/24/2019 22:00 655.58 0.00 68.1 69.0 --
07/24/2019 21:00 655.58 0.00 73.9 51.0 --
07/24/2019 20:00 655.58 0.00 73.9 51.0 --
07/24/2019 19:00 655.57 0.00 78.1 41.0 --
07/24/2019 18:00 655.59 0.00 76.6 39.0 --
07/24/2019 17:00 655.59 0.00 75.9 45.0 --
07/24/2019 16:00 655.61 0.01 74.9 37.0 --
07/24/2019 15:00 655.60 0.00 74.7 50.0 --
07/24/2019 14:00 655.61 0.00 74.4 46.0 --
07/24/2019 13:00 655.60 0.00 72.3 55.0 --
07/24/2019 12:00 655.62 0.00 72.3 62.0 --
07/24/2019 11:00 655.62 0.00 67.6 73.0 --
07/24/2019 10:00 655.62 0.00 65.4 81.0 --
07/24/2019 09:00 655.63 0.00 62.4 100.0 --
07/24/2019 08:00 655.63 0.00 62.4 100.0 --
07/24/2019 07:00 655.63 0.00 62.3 100.0 --
07/24/2019 06:00 655.63 0.00 62.5 100.0 --
07/24/2019 05:00 655.63 0.00 62.5 100.0 --
07/24/2019 04:00 655.63 0.00 63.1 100.0 --
07/24/2019 03:00 655.63 0.00 63.5 100.0 --
07/24/2019 02:00 655.63 0.00 63.6 100.0 --
07/24/2019 01:00 655.64 0.00 64.0 100.0 --
07/24/2019 00:00 655.64 0.00 64.0 100.0 --
07/23/2019 23:00 655.64 0.00 63.8 100.0 --
07/23/2019 22:00 655.64 0.00 65.8 100.0 --
07/23/2019 21:00 655.63 0.00 67.0 100.0 --
07/23/2019 20:00 655.64 0.00 70.1 70.0 --
07/23/2019 19:00 655.64 0.00 70.1 70.0 --
07/23/2019 18:00 655.64 0.00 70.7 74.0 --
07/23/2019 17:00 655.63 0.00 65.4 82.0 --
07/23/2019 16:00 655.64 0.00 63.8 92.0 --
07/23/2019 15:00 655.63 0.00 62.3 96.0 --
07/23/2019 14:00 655.63 0.00 62.3 96.0 --
07/23/2019 13:00 655.63 0.00 60.6 100.0 --
07/23/2019 12:00 655.62 0.03 60.7 100.0 --
07/23/2019 11:00 655.61 0.10 60.2 100.0 --
07/23/2019 10:00 655.60 0.00 61.3 100.0 --
07/23/2019 09:00 655.60 0.07 61.3 100.0 --
07/23/2019 08:00 655.59 0.04 61.4 100.0 --
07/23/2019 07:00 655.57 0.10 62.0 100.0 --
07/23/2019 06:00 655.56 0.25 62.3 100.0 --
07/23/2019 05:00 655.53 0.00 62.1 100.0 --
07/23/2019 04:00 655.53 0.01 62.1 100.0 --
07/23/2019 03:00 655.53 0.01 62.0 100.0 --
07/23/2019 02:00 655.53 0.05 61.5 100.0 --
07/23/2019 01:00 655.52 0.54 62.4 100.0 --
07/23/2019 00:00 655.48 0.13 63.4 100.0 --
07/22/2019 23:00 655.46 0.03 62.8 100.0 --
07/22/2019 22:00 655.45 0.00 63.0 100.0 --
07/22/2019 21:00 655.45 0.07 63.0 100.0 --
07/22/2019 20:00 655.46 0.25 64.0 100.0 --
07/22/2019 19:00 655.43 0.14 65.4 100.0 --
07/22/2019 18:00 655.42 0.24 66.9 100.0 --
07/22/2019 17:00 655.40 0.00 67.7 100.0 --
07/22/2019 16:00 655.40 0.01 67.7 100.0 --
07/22/2019 15:00 655.40 0.08 68.5 100.0 --
07/22/2019 14:00 655.39 0.01 70.4 98.0 --
07/22/2019 13:00 655.39 0.00 72.5 85.0 --
07/22/2019 12:00 655.38 0.00 73.7 78.0 --
07/22/2019 11:00 655.38 0.00 73.7 78.0 --
07/22/2019 10:00 655.39 0.00 73.6 78.0 --
07/22/2019 09:00 655.39 0.00 67.9 100.0 --
07/22/2019 08:00 655.38 0.00 65.4 100.0 --
07/22/2019 07:00 655.40 0.00 66.6 100.0 --
07/22/2019 06:00 655.40 0.00 66.6 100.0 --
07/22/2019 05:00 655.39 0.00 67.5 100.0 --
07/22/2019 04:00 655.38 0.00 69.2 93.0 --
07/22/2019 03:00 655.39 0.00 68.1 93.0 --
07/22/2019 02:00 655.39 0.00 73.6 83.0 --
07/22/2019 01:00 655.39 0.00 75.0 78.0 --
07/22/2019 00:00 655.39 0.00 77.8 77.0 --
07/21/2019 23:00 655.39 0.00 76.4 84.0 --
07/21/2019 22:00 655.39 0.00 82.8 68.0 --
07/21/2019 21:00 655.39 0.00 85.9 59.0 --
07/21/2019 20:00 655.39 0.00 85.9 59.0 --
07/21/2019 19:00 655.39 0.00 88.0 50.0 --
07/21/2019 18:00 655.38 0.00 87.3 55.0 --
07/21/2019 17:00 655.40 0.00 87.2 52.0 --
07/21/2019 16:00 655.41 0.00 87.1 52.0 --
07/21/2019 15:00 655.41 0.00 87.1 52.0 --
07/21/2019 14:00 655.40 0.00 86.9 53.0 --
07/21/2019 13:00 655.42 0.00 84.8 61.0 --
07/21/2019 12:00 655.40 0.00 82.4 67.0 --
07/21/2019 11:00 655.41 0.00 80.6 74.0 --
07/21/2019 10:00 655.43 0.00 80.3 74.0 --
07/21/2019 09:00 655.40 0.00 77.4 81.0 --
07/21/2019 08:00 655.40 0.00 78.0 80.0 --
07/21/2019 07:00 655.41 0.00 75.6 84.0 --
07/21/2019 06:00 655.42 0.00 79.9 71.0 --
07/21/2019 05:00 655.41 0.00 81.4 68.0 --
07/21/2019 04:00 655.41 0.00 81.8 69.0 --
07/21/2019 03:00 655.41 0.00 82.7 75.0 --
07/21/2019 02:00 655.41 0.00 82.9 79.0 --
07/21/2019 01:00 655.40 0.00 81.7 83.0 --
07/21/2019 00:00 655.41 0.00 83.0 77.0 --
07/20/2019 23:00 655.41 0.00 83.0 77.0 --
07/20/2019 22:00 655.41 0.00 84.0 74.0 --
07/20/2019 21:00 655.40 0.00 86.9 68.0 --
07/20/2019 20:00 655.41 0.00 84.7 74.0 --
07/20/2019 19:00 655.41 0.00 91.2 54.0 --
07/20/2019 18:00 655.41 0.00 91.2 54.0 --
07/20/2019 17:00 655.42 0.00 90.8 49.0 --
07/20/2019 16:00 655.42 0.00 88.8 56.0 --
07/20/2019 15:00 655.42 0.00 87.6 57.0 --
07/20/2019 14:00 655.41 0.00 86.4 63.0 --
07/20/2019 13:00 655.41 0.00 86.4 63.0 --
07/20/2019 12:00 655.43 0.00 85.8 63.0 --
07/20/2019 11:00 655.42 0.00 81.0 74.0 --
07/20/2019 10:00 655.41 0.00 77.8 88.0 --
07/20/2019 09:00 655.42 0.00 77.3 85.0 --
07/20/2019 08:00 655.42 0.00 77.3 85.0 --
07/20/2019 07:00 655.43 0.00 75.6 93.0 --
07/20/2019 06:00 655.42 0.00 76.0 91.0 --
07/20/2019 05:00 655.42 0.00 76.0 96.0 --
07/20/2019 04:00 655.41 0.00 80.2 81.0 --
07/20/2019 03:00 655.41 0.00 80.2 81.0 --
07/20/2019 02:00 655.42 0.00 78.5 87.0 --
07/20/2019 01:00 655.42 0.00 82.4 70.0 --
07/20/2019 00:00 655.42 0.00 81.9 71.0 --
07/19/2019 23:00 655.42 0.00 83.8 66.0 --
07/19/2019 22:00 655.42 0.00 82.0 73.0 --
07/19/2019 21:00 655.41 0.00 87.0 61.0 --
07/19/2019 20:00 655.41 0.00 87.0 61.0 --
07/19/2019 19:00 655.42 0.00 87.7 58.0 --
07/19/2019 18:00 655.42 0.00 86.5 61.0 --
07/19/2019 17:00 655.42 0.00 86.5 61.0 --
07/19/2019 16:00 655.42 0.00 85.7 61.0 --
07/19/2019 15:00 655.44 0.00 83.5 64.0 --
07/19/2019 14:00 655.43 0.00 81.0 66.0 --
07/19/2019 13:00 655.43 0.00 78.1 69.0 --
07/19/2019 12:00 655.43 0.00 78.1 69.0 --
07/19/2019 11:00 655.43 0.00 74.9 75.0 --
07/19/2019 10:00 655.42 0.00 68.4 80.0 --
07/19/2019 09:00 655.43 0.00 65.9 82.0 --
07/19/2019 08:00 655.43 0.00 65.5 85.0 --
07/19/2019 07:00 655.43 0.00 65.5 85.0 --
07/19/2019 06:00 655.43 0.00 64.0 93.0 --
07/19/2019 05:00 655.43 0.00 65.0 82.0 --
07/19/2019 04:00 655.43 0.00 64.8 81.0 --
07/19/2019 03:00 655.43 0.00 63.4 91.0 --
07/19/2019 02:00 655.43 0.00 63.4 91.0 --
07/19/2019 01:00 655.44 0.00 61.6 100.0 --
07/19/2019 00:00 655.43 0.00 64.1 87.0 --
07/18/2019 23:00 655.43 0.00 66.9 77.0 --
07/18/2019 22:00 655.43 0.00 69.5 69.0 --
07/18/2019 21:00 655.43 0.00 69.5 69.0 --
07/18/2019 20:00 655.44 0.00 70.4 69.0 --
07/18/2019 19:00 655.44 0.00 74.5 58.0 --
07/18/2019 18:00 655.43 0.00 76.1 55.0 --
07/18/2019 17:00 655.44 0.00 75.2 56.0 --
07/18/2019 16:00 655.44 0.00 75.2 56.0 --
07/18/2019 15:00 655.44 0.00 74.9 58.0 --
07/18/2019 14:00 655.44 0.00 71.9 65.0 --
07/18/2019 13:00 655.44 0.00 70.8 71.0 --
07/18/2019 12:00 655.43 0.00 70.8 75.0 --
07/18/2019 11:00 655.43 0.00 70.8 75.0 --
07/18/2019 10:00 655.44 0.00 68.1 94.0 --
07/18/2019 09:00 655.44 0.00 66.5 100.0 --
07/18/2019 08:00 655.45 0.00 65.5 100.0 --
07/18/2019 07:00 655.44 0.00 65.9 100.0 --
07/18/2019 06:00 655.44 0.00 65.9 100.0 --
07/18/2019 05:00 655.43 0.00 66.7 100.0 --
07/18/2019 04:00 655.45 0.00 68.3 100.0 --
07/18/2019 03:00 655.45 0.00 69.2 100.0 --
07/18/2019 02:00 655.44 0.00 70.2 100.0 --
07/18/2019 01:00 655.44 0.00 70.2 100.0 --
07/18/2019 00:00 655.43 0.00 71.1 100.0 --
07/17/2019 23:00 655.44 0.00 72.0 100.0 --
07/17/2019 22:00 655.44 0.00 72.9 100.0 --
07/17/2019 21:00 655.44 0.00 73.9 98.0 --
07/17/2019 20:00 655.44 0.01 73.9 98.0 --
07/17/2019 19:00 655.44 0.05 73.6 100.0 --
07/17/2019 18:00 655.44 0.00 76.1 90.0 --
07/17/2019 17:00 655.43 0.00 79.9 71.0 --
07/17/2019 16:00 655.43 0.00 80.5 74.0 --
07/17/2019 15:00 655.44 0.00 80.5 72.0 --
07/17/2019 14:00 655.43 0.00 77.6 79.0 --
07/17/2019 13:00 655.44 0.00 77.8 75.0 --
07/17/2019 12:00 655.44 0.00 75.4 83.0 --
07/17/2019 11:00 655.44 0.00 73.8 89.0 --
07/17/2019 10:00 655.44 0.00 74.4 81.0 --
07/17/2019 09:00 655.44 0.00 73.2 92.0 --
07/17/2019 08:00 655.44 0.00 73.2 92.0 --
07/17/2019 07:00 655.44 0.00 72.4 93.0 --
07/17/2019 06:00 655.44 0.00 72.7 94.0 --
07/17/2019 05:00 655.44 0.00 69.9 100.0 --
07/17/2019 04:00 655.43 0.00 70.4 100.0 --
07/17/2019 03:00 655.43 0.00 69.4 100.0 --
07/17/2019 02:00 655.43 0.00 68.9 100.0 --
07/17/2019 01:00 655.44 0.00 69.6 100.0 --
07/17/2019 00:00 655.44 0.00 69.6 100.0 --
07/16/2019 23:00 655.44 0.00 70.3 100.0 --
07/16/2019 22:00 655.44 0.00 70.5 100.0 --
07/16/2019 21:00 655.43 0.00 72.5 100.0 --
07/16/2019 20:00 655.43 0.00 78.9 83.0 --
07/16/2019 19:00 655.43 0.00 78.9 83.0 --
07/16/2019 18:00 655.43 0.04 73.2 100.0 --
07/16/2019 17:00 655.44 0.00 78.2 54.0 --
07/16/2019 16:00 655.43 0.00 79.0 48.0 --
07/16/2019 15:00 655.44 0.00 78.4 47.0 --
07/16/2019 14:00 655.44 0.00 78.4 47.0 --
07/16/2019 13:00 655.44 0.00 77.5 51.0 --
07/16/2019 12:00 655.44 0.00 73.6 62.0 --
07/16/2019 11:00 655.44 0.00 68.5 77.0 --
07/16/2019 10:00 655.43 0.00 63.5 88.0 --
07/16/2019 09:00 655.43 0.00 63.5 88.0 --
07/16/2019 08:00 655.44 0.00 60.1 100.0 --
07/16/2019 07:00 655.44 0.00 58.3 100.0 --
07/16/2019 06:00 655.44 0.00 58.8 100.0 --
07/16/2019 05:00 655.44 0.00 60.1 100.0 --
07/16/2019 04:00 655.44 0.00 61.2 98.0 --
07/16/2019 03:00 655.43 0.00 62.3 93.0 --
07/16/2019 02:00 655.43 0.00 62.3 93.0 --
07/16/2019 01:00 655.44 0.00 62.8 92.0 --
07/16/2019 00:00 655.43 0.00 64.2 84.0 --
07/15/2019 23:00 655.43 0.00 64.2 84.0 --
07/15/2019 22:00 655.44 0.00 66.2 89.0 --
07/15/2019 21:00 655.43 0.00 76.6 57.0 --
07/15/2019 20:00 655.44 0.00 77.6 47.0 --
07/15/2019 19:00 655.44 0.00 78.1 46.0 --
07/15/2019 18:00 655.44 0.00 78.1 46.0 --
07/15/2019 17:00 655.45 0.00 77.4 45.0 --
07/15/2019 16:00 655.45 0.00 76.4 48.0 --
07/15/2019 15:00 655.44 0.00 75.2 46.0 --
07/15/2019 14:00 655.45 0.00 72.9 54.0 --
07/15/2019 13:00 655.45 0.00 72.9 54.0 --
07/15/2019 12:00 655.46 0.00 71.3 54.0 --
07/15/2019 11:00 655.45 0.00 67.7 65.0 --
07/15/2019 10:00 655.46 0.00 65.6 72.0 --
07/15/2019 09:00 655.46 0.00 61.0 92.0 --
07/15/2019 08:00 655.46 0.00 61.0 92.0 --
07/15/2019 07:00 655.46 0.00 59.0 100.0 --
07/15/2019 06:00 655.45 0.00 59.3 100.0 --
07/15/2019 05:00 655.46 0.00 61.2 96.0 --
07/15/2019 04:00 655.45 0.00 63.4 81.0 --
07/15/2019 03:00 655.45 0.00 63.4 81.0 --
07/15/2019 02:00 655.47 0.00 64.6 81.0 --
07/15/2019 01:00 655.46 0.00 65.3 81.0 --
07/15/2019 00:00 655.45 0.00 66.7 76.0 --
07/14/2019 23:00 655.46 0.00 69.1 71.0 --
07/14/2019 22:00 655.46 0.00 75.9 58.0 --
07/14/2019 21:00 655.46 0.00 78.7 52.0 --
07/14/2019 20:00 655.46 0.00 80.1 49.0 --
07/14/2019 19:00 655.47 0.00 79.9 49.0 --
07/14/2019 18:00 655.46 0.00 80.7 44.0 --
07/14/2019 17:00 655.46 0.00 80.2 46.0 --
07/14/2019 16:00 655.45 0.00 80.8 44.0 --
07/14/2019 15:00 655.49 0.00 80.7 48.0 --
07/14/2019 14:00 655.49 0.00 80.7 48.0 --
07/14/2019 13:00 655.48 0.00 79.7 50.0 --
07/14/2019 12:00 655.48 0.00 76.1 65.0 --
07/14/2019 11:00 655.48 0.00 74.7 70.0 --
07/14/2019 10:00 655.47 0.00 69.3 94.0 --
07/14/2019 09:00 655.48 0.00 65.2 100.0 --
07/14/2019 08:00 655.48 0.00 64.6 100.0 --
07/14/2019 07:00 655.48 0.00 65.4 100.0 --
07/14/2019 06:00 655.48 0.00 66.0 100.0 --
07/14/2019 05:00 655.48 0.00 67.6 100.0 --
07/14/2019 04:00 655.48 0.00 67.6 100.0 --
07/14/2019 03:00 655.48 0.00 67.6 100.0 --
07/14/2019 02:00 655.48 0.00 68.9 100.0 --
07/14/2019 01:00 655.48 0.00 67.3 100.0 --
07/14/2019 00:00 655.49 0.00 67.6 100.0 --
07/13/2019 23:00 655.49 0.00 69.6 100.0 --
07/13/2019 22:00 655.49 0.00 73.6 87.0 --
07/13/2019 21:00 655.49 0.00 77.8 72.0 --
07/13/2019 20:00 655.50 0.00 82.4 49.0 --
07/13/2019 19:00 655.49 0.00 82.0 49.0 --
07/13/2019 18:00 655.49 0.00 82.0 49.0 --
07/13/2019 17:00 655.49 0.00 81.9 44.0 --
07/13/2019 16:00 655.51 0.00 80.5 51.0 --
07/13/2019 15:00 655.50 0.00 77.6 56.0 --
07/13/2019 14:00 655.50 0.00 76.2 58.0 --
07/13/2019 13:00 655.50 0.00 76.2 58.0 --
07/13/2019 12:00 655.50 0.00 75.3 61.0 --
07/13/2019 11:00 655.51 0.00 69.8 80.0 --
07/13/2019 10:00 655.51 0.00 67.2 100.0 --
07/13/2019 09:00 655.50 0.00 62.8 100.0 --
07/13/2019 08:00 655.50 0.00 62.8 100.0 --
07/13/2019 07:00 655.52 0.00 62.1 100.0 --
07/13/2019 06:00 655.51 0.00 63.1 100.0 --
07/13/2019 05:00 655.51 0.00 63.5 100.0 --
07/13/2019 04:00 655.51 0.00 64.8 100.0 --
07/13/2019 03:00 655.51 0.00 65.2 100.0 --
07/13/2019 02:00 655.51 0.00 66.6 100.0 --
07/13/2019 01:00 655.52 0.00 68.3 100.0 --
07/13/2019 00:00 655.52 0.00 69.9 100.0 --
07/12/2019 23:00 655.51 0.00 70.3 100.0 --
07/12/2019 22:00 655.51 0.00 70.3 100.0 --
07/12/2019 21:00 655.51 0.00 71.9 100.0 --
07/12/2019 20:00 655.52 0.03 72.6 100.0 --
07/12/2019 19:00 655.53 0.90 70.8 100.0 --
07/12/2019 18:00 655.48 0.00 79.5 72.0 --
07/12/2019 17:00 655.47 0.00 77.0 85.0 --
07/12/2019 16:00 655.46 0.24 74.7 100.0 --
07/12/2019 15:00 655.45 0.00 76.8 83.0 --
07/12/2019 14:00 655.46 0.00 75.1 94.0 --
07/12/2019 13:00 655.45 0.00 74.0 100.0 --
07/12/2019 12:00 655.45 0.00 74.0 100.0 --
07/12/2019 11:00 655.45 0.00 71.2 100.0 --
07/12/2019 10:00 655.46 0.00 68.6 100.0 --
07/12/2019 09:00 655.46 0.00 67.8 100.0 --
07/12/2019 08:00 655.45 0.00 67.6 100.0 --
07/12/2019 07:00 655.45 0.00 68.1 100.0 --
07/12/2019 06:00 655.46 0.00 68.2 100.0 --
07/12/2019 05:00 655.46 0.01 68.2 100.0 --
07/12/2019 04:00 655.44 0.01 67.6 100.0 --
07/12/2019 03:00 655.45 0.00 66.9 100.0 --
07/12/2019 02:00 655.45 0.00 66.9 100.0 --
07/12/2019 01:00 655.45 0.00 67.0 100.0 --
07/12/2019 00:00 655.45 0.01 68.1 100.0 --
07/11/2019 23:00 655.46 0.00 70.2 94.0 --
07/11/2019 22:00 655.45 0.00 70.5 100.0 --
07/11/2019 21:00 655.45 0.00 70.5 100.0 --
07/11/2019 20:00 655.46 0.01 70.2 100.0 --
07/11/2019 19:00 655.43 0.16 72.7 100.0 --
07/11/2019 18:00 655.44 0.00 75.0 84.0 --
07/11/2019 17:00 655.43 0.00 75.1 78.0 --
07/11/2019 16:00 655.43 0.00 75.1 78.0 --
07/11/2019 15:00 655.45 0.00 77.6 75.0 --
07/11/2019 14:00 655.44 0.00 79.9 67.0 --
07/11/2019 13:00 655.43 0.00 79.5 67.0 --
07/11/2019 12:00 655.43 0.00 72.0 79.0 --
07/11/2019 11:00 655.43 0.00 72.0 79.0 --
07/11/2019 10:00 655.43 0.00 69.3 84.0 --
07/11/2019 09:00 655.43 0.00 66.2 96.0 --
07/11/2019 08:00 655.44 0.00 61.6 100.0 --
07/11/2019 07:00 655.43 0.00 60.5 100.0 --
07/11/2019 06:00 655.43 0.00 60.5 100.0 --
07/11/2019 05:00 655.43 0.00 61.3 100.0 --
07/11/2019 04:00 655.44 0.00 61.8 100.0 --
07/11/2019 03:00 655.44 0.00 63.2 100.0 --
07/11/2019 02:00 655.43 0.00 66.3 93.0 --
07/11/2019 01:00 655.44 0.00 70.4 83.0 --
07/11/2019 00:00 655.43 0.00 68.7 85.0 --
07/10/2019 23:00 655.43 0.00 68.7 85.0 --
07/10/2019 22:00 655.44 0.00 72.1 82.0 --
07/10/2019 21:00 655.43 0.00 73.9 78.0 --
07/10/2019 20:00 655.43 0.00 79.3 63.0 --
07/10/2019 19:00 655.43 0.00 86.3 39.0 --
07/10/2019 18:00 655.43 0.00 86.3 39.0 --
07/10/2019 17:00 655.43 0.00 83.8 43.0 --
07/10/2019 16:00 655.44 0.00 84.2 40.0 --
07/10/2019 15:00 655.44 0.00 82.2 42.0 --
07/10/2019 14:00 655.44 0.00 81.0 40.0 --
07/10/2019 13:00 655.44 0.00 81.0 40.0 --
07/10/2019 12:00 655.44 0.00 79.9 43.0 --
07/10/2019 11:00 655.44 0.00 71.0 73.0 --
07/10/2019 10:00 655.45 0.00 65.9 81.0 --
07/10/2019 09:00 655.44 0.00 61.4 99.0 --
07/10/2019 08:00 655.44 0.00 61.4 99.0 --
07/10/2019 07:00 655.45 0.00 60.6 100.0 --
07/10/2019 06:00 655.44 0.00 61.9 99.0 --
07/10/2019 05:00 655.44 0.00 62.9 99.0 --
07/10/2019 04:00 655.45 0.00 63.1 93.0 --
07/10/2019 03:00 655.45 0.00 63.1 93.0 --
07/10/2019 02:00 655.44 0.00 64.4 88.0 --
07/10/2019 01:00 655.44 0.00 65.2 85.0 --
07/10/2019 00:00 655.44 0.00 66.1 81.0 --
07/09/2019 23:00 655.43 0.00 70.1 75.0 --
07/09/2019 22:00 655.43 0.00 70.1 75.0 --
07/09/2019 21:00 655.44 0.00 72.9 66.0 --
07/09/2019 20:00 655.45 0.00 82.0 38.0 --
07/09/2019 19:00 655.45 0.00 82.5 35.0 --
07/09/2019 18:00 655.44 0.00 82.0 34.0 --
07/09/2019 17:00 655.44 0.00 82.0 34.0 --
07/09/2019 16:00 655.45 0.00 81.1 32.0 --
07/09/2019 15:00 655.44 0.00 80.0 36.0 --
07/09/2019 14:00 655.44 0.00 79.2 33.0 --
07/09/2019 13:00 655.45 0.00 76.6 44.0 --
07/09/2019 12:00 655.44 0.00 74.3 48.0 --
07/09/2019 11:00 655.45 0.00 70.6 66.0 --
07/09/2019 10:00 655.45 0.00 70.6 66.0 --
07/09/2019 09:00 655.45 0.00 64.0 76.0 --
07/09/2019 08:00 655.45 0.00 56.7 100.0 --
07/09/2019 07:00 655.46 0.00 56.5 100.0 --
07/09/2019 06:00 655.45 0.00 57.7 100.0 --
07/09/2019 05:00 655.45 0.00 57.7 100.0 --
07/09/2019 04:00 655.44 0.00 58.5 97.0 --
07/09/2019 03:00 655.46 0.00 61.2 91.0 --
07/09/2019 02:00 655.46 0.00 61.3 90.0 --
07/09/2019 01:00 655.46 0.00 62.3 84.0 --
07/09/2019 00:00 655.46 0.00 62.3 84.0 --
07/08/2019 23:00 655.46 0.00 64.3 77.0 --
07/08/2019 22:00 655.45 0.00 68.6 67.0 --
07/08/2019 21:00 655.46 0.00 75.3 58.0 --
07/08/2019 20:00 655.46 0.00 78.8 52.0 --
07/08/2019 19:00 655.46 0.00 78.8 52.0 --
07/08/2019 18:00 655.45 0.00 81.5 36.0 --
07/08/2019 17:00 655.45 0.00 78.2 32.0 --
07/08/2019 16:00 655.46 0.00 76.6 35.0 --
07/08/2019 15:00 655.45 0.00 74.6 44.0 --
07/08/2019 14:00 655.45 0.00 74.6 44.0 --
07/08/2019 13:00 655.46 0.00 72.0 42.0 --
07/08/2019 12:00 655.46 0.00 68.5 56.0 --
07/08/2019 11:00 655.47 0.00 65.3 70.0 --
07/08/2019 10:00 655.47 0.00 59.4 85.0 --
07/08/2019 09:00 655.47 0.00 59.4 85.0 --
07/08/2019 08:00 655.47 0.00 54.3 100.0 --
07/08/2019 07:00 655.47 0.00 53.7 100.0 --
07/08/2019 06:00 655.47 0.00 54.9 100.0 --
07/08/2019 05:00 655.46 0.00 56.5 100.0 --
07/08/2019 04:00 655.46 0.00 57.8 100.0 --
07/08/2019 03:00 655.46 0.00 58.4 94.0 --
07/08/2019 02:00 655.46 0.00 58.4 94.0 --
07/08/2019 01:00 655.47 0.00 60.1 91.0 --
07/08/2019 00:00 655.47 0.00 63.4 74.0 --
07/07/2019 23:00 655.47 0.00 63.4 74.0 --
07/07/2019 22:00 655.47 0.00 65.0 78.0 --
07/07/2019 21:00 655.48 0.00 78.5 41.0 --
07/07/2019 20:00 655.48 0.00 77.9 40.0 --
07/07/2019 19:00 655.47 0.00 78.2 34.0 --
07/07/2019 18:00 655.48 0.00 77.5 35.0 --
07/07/2019 17:00 655.48 0.00 77.2 37.0 --
07/07/2019 16:00 655.48 0.00 75.3 38.0 --
07/07/2019 15:00 655.48 0.00 75.3 38.0 --
07/07/2019 14:00 655.48 0.00 74.5 42.0 --
07/07/2019 13:00 655.49 0.00 70.4 61.0 --
07/07/2019 12:00 655.49 0.00 68.6 77.0 --
07/07/2019 11:00 655.48 0.00 64.5 100.0 --
07/07/2019 10:00 655.48 0.00 64.5 100.0 --
07/07/2019 09:00 655.48 0.00 63.0 100.0 --
07/07/2019 08:00 655.49 0.00 63.1 98.0 --
07/07/2019 07:00 655.48 0.00 60.6 100.0 --
07/07/2019 06:00 655.48 0.00 65.4 100.0 --
07/07/2019 05:00 655.48 0.00 65.4 100.0 --
07/07/2019 04:00 655.49 0.00 68.3 100.0 --
07/07/2019 03:00 655.49 0.00 69.4 100.0 --
07/07/2019 02:00 655.48 0.00 68.6 100.0 --
07/07/2019 01:00 655.49 0.00 70.5 100.0 --
07/07/2019 00:00 655.49 0.00 70.5 100.0 --
07/06/2019 23:00 655.49 0.00 71.0 100.0 --
07/06/2019 22:00 655.49 0.00 71.7 100.0 --
07/06/2019 21:00 655.49 0.00 72.6 100.0 --
07/06/2019 20:00 655.50 0.01 73.8 100.0 --
07/06/2019 19:00 655.50 0.35 71.8 100.0 --
07/06/2019 18:00 655.46 0.00 79.0 84.0 --
07/06/2019 17:00 655.46 0.00 79.0 84.0 --
07/06/2019 16:00 655.48 0.40 76.0 96.0 --
07/06/2019 15:00 655.47 0.00 85.8 60.0 --
07/06/2019 14:00 655.45 0.00 83.8 66.0 --
07/06/2019 13:00 655.46 0.00 82.3 68.0 --
07/06/2019 12:00 655.45 0.00 80.6 73.0 --
07/06/2019 11:00 655.46 0.00 78.8 80.0 --
07/06/2019 10:00 655.46 0.00 75.9 88.0 --
07/06/2019 09:00 655.46 0.00 75.9 88.0 --
07/06/2019 08:00 655.46 0.00 74.6 92.0 --
07/06/2019 07:00 655.46 0.00 73.8 95.0 --
07/06/2019 06:00 655.45 0.00 73.8 94.0 --
07/06/2019 05:00 655.46 0.00 74.1 90.0 --
07/06/2019 04:00 655.46 0.00 74.1 90.0 --
07/06/2019 03:00 655.46 0.00 74.7 83.0 --
07/06/2019 02:00 655.46 0.00 75.0 71.0 --
07/06/2019 01:00 655.45 0.00 71.9 78.0 --
07/06/2019 00:00 655.46 0.00 72.0 76.0 --
07/05/2019 23:00 655.45 0.00 74.3 73.0 --
07/05/2019 22:00 655.45 0.00 77.7 61.0 --
07/05/2019 21:00 655.46 0.00 85.5 49.0 --
07/05/2019 20:00 655.46 0.00 85.5 49.0 --
07/05/2019 19:00 655.45 0.00 86.6 43.0 --
07/05/2019 18:00 655.47 0.00 86.9 41.0 --
07/05/2019 17:00 655.47 0.00 87.1 40.0 --
07/05/2019 16:00 655.47 0.00 85.4 44.0 --
07/05/2019 15:00 655.47 0.00 85.2 39.0 --
07/05/2019 14:00 655.47 0.00 83.7 45.0 --
07/05/2019 13:00 655.47 0.00 83.7 45.0 --
07/05/2019 12:00 655.47 0.00 82.5 45.0 --
07/05/2019 11:00 655.47 0.00 75.2 68.0 --
07/05/2019 10:00 655.47 0.00 75.2 68.0 --
07/05/2019 09:00 655.46 0.00 71.1 91.0 --
07/05/2019 08:00 655.46 0.00 65.3 100.0 --
07/05/2019 07:00 655.46 0.00 64.8 100.0 --
07/05/2019 06:00 655.47 0.00 66.5 100.0 --
07/05/2019 05:00 655.46 0.00 66.1 100.0 --
07/05/2019 04:00 655.47 0.00 66.9 95.0 --
07/05/2019 03:00 655.47 0.00 67.2 86.0 --
07/05/2019 02:00 655.47 0.00 68.1 84.0 --
07/05/2019 01:00 655.47 0.00 70.4 88.0 --
07/05/2019 00:00 655.47 0.00 70.4 88.0 --
07/04/2019 23:00 655.47 0.00 70.5 92.0 --
07/04/2019 22:00 655.47 0.00 75.0 73.0 --
07/04/2019 21:00 655.47 0.00 81.8 59.0 --
07/04/2019 20:00 655.47 0.00 80.6 65.0 --
07/04/2019 19:00 655.47 0.00 83.8 57.0 --
07/04/2019 18:00 655.48 0.00 85.4 46.0 --
07/04/2019 17:00 655.47 0.00 86.3 33.0 --
07/04/2019 16:00 655.47 0.00 85.0 35.0 --
07/04/2019 15:00 655.48 0.00 84.0 34.0 --
07/04/2019 14:00 655.47 0.00 82.4 51.0 --
07/04/2019 13:00 655.48 0.00 82.9 45.0 --
07/04/2019 12:00 655.48 0.00 80.1 59.0 --
07/04/2019 11:00 655.48 0.00 80.1 59.0 --
07/04/2019 10:00 655.48 0.00 76.9 73.0 --
07/04/2019 09:00 655.48 0.00 65.2 100.0 --
07/04/2019 08:00 655.48 0.00 65.0 100.0 --
07/04/2019 07:00 655.48 0.00 65.4 100.0 --
07/04/2019 06:00 655.48 0.00 65.4 100.0 --
07/04/2019 05:00 655.48 0.00 65.6 100.0 --
07/04/2019 04:00 655.47 0.00 67.8 97.0 --
07/04/2019 03:00 655.47 0.00 67.8 97.0 --
07/04/2019 02:00 655.48 0.00 69.1 93.0 --
07/04/2019 01:00 655.47 0.00 70.4 91.0 --
07/04/2019 00:00 655.48 0.00 71.7 90.0 --
07/03/2019 23:00 655.48 0.00 71.9 88.0 --
07/03/2019 22:00 655.48 0.00 71.9 88.0 --
07/03/2019 21:00 655.48 0.00 74.1 79.0 --
07/03/2019 20:00 655.48 0.00 81.5 63.0 --
07/03/2019 19:00 655.49 0.00 84.7 40.0 --
07/03/2019 18:00 655.48 0.00 84.8 39.0 --
07/03/2019 17:00 655.48 0.00 84.8 39.0 --
07/03/2019 16:00 655.48 0.00 84.1 36.0 --
07/03/2019 15:00 655.48 0.00 83.5 43.0 --
07/03/2019 14:00 655.49 0.00 82.5 40.0 --
07/03/2019 13:00 655.48 0.00 79.9 51.0 --
07/03/2019 12:00 655.48 0.00 79.9 51.0 --
07/03/2019 11:00 655.48 0.00 78.3 58.0 --
07/03/2019 10:00 655.48 0.00 68.9 90.0 --
07/03/2019 09:00 655.49 0.00 64.1 100.0 --
07/03/2019 08:00 655.49 0.00 62.7 100.0 --
07/03/2019 07:00 655.49 0.00 62.8 100.0 --
07/03/2019 06:00 655.49 0.00 64.0 100.0 --
07/03/2019 05:00 655.49 0.00 64.6 100.0 --
07/03/2019 04:00 655.49 0.00 65.4 100.0 --
07/03/2019 03:00 655.49 0.00 67.0 94.0 --
07/03/2019 02:00 655.49 0.00 67.0 94.0 --
07/03/2019 01:00 655.49 0.00 67.5 95.0 --
07/03/2019 00:00 655.49 0.00 71.6 82.0 --
07/02/2019 23:00 655.49 0.00 70.9 87.0 --
07/02/2019 22:00 655.49 0.00 73.7 77.0 --
07/02/2019 21:00 655.49 0.00 78.1 65.0 --
07/02/2019 20:00 655.49 0.00 82.9 47.0 --
07/02/2019 19:00 655.49 0.00 82.5 47.0 --
07/02/2019 18:00 655.51 0.00 81.8 39.0 --
07/02/2019 17:00 655.51 0.00 80.5 46.0 --
07/02/2019 16:00 655.51 0.00 80.5 46.0 --
07/02/2019 15:00 655.49 0.00 79.3 51.0 --
07/02/2019 14:00 655.51 0.00 74.5 61.0 --
07/02/2019 13:00 655.50 0.00 73.7 64.0 --
07/02/2019 12:00 655.51 0.00 71.5 69.0 --
07/02/2019 11:00 655.51 0.00 71.5 69.0 --
07/02/2019 10:00 655.51 0.00 69.8 75.0 --
07/02/2019 09:00 655.50 0.00 65.7 96.0 --
07/02/2019 08:00 655.50 0.00 65.3 93.0 --
07/02/2019 07:00 655.51 0.00 64.9 99.0 --
07/02/2019 06:00 655.51 0.00 64.9 99.0 --
07/02/2019 05:00 655.50 0.00 64.9 100.0 --
07/02/2019 04:00 655.50 0.00 65.2 94.0 --
07/02/2019 03:00 655.51 0.00 64.6 94.0 --
07/02/2019 02:00 655.50 0.00 64.0 93.0 --
07/02/2019 01:00 655.50 0.00 64.0 93.0 --
07/02/2019 00:00 655.51 0.00 65.7 86.0 --
07/01/2019 23:00 655.50 0.00 66.2 79.0 --
07/01/2019 22:00 655.51 0.00 68.2 78.0 --
07/01/2019 21:00 655.51 0.00 80.0 45.0 --
07/01/2019 20:00 655.51 0.01 79.6 47.0 --
07/01/2019 19:00 655.51 0.00 79.6 45.0 --
07/01/2019 18:00 655.51 0.00 79.6 45.0 --
07/01/2019 17:00 655.50 0.00 78.6 48.0 --
07/01/2019 16:00 655.51 0.00 77.8 48.0 --
07/01/2019 15:00 655.52 0.00 77.1 47.0 --
07/01/2019 14:00 655.53 0.00 75.2 52.0 --
07/01/2019 13:00 655.53 0.00 75.2 52.0 --
07/01/2019 12:00 655.53 0.00 73.8 57.0 --
07/01/2019 11:00 655.51 0.00 68.0 73.0 --
07/01/2019 10:00 655.51 0.00 68.0 73.0 --
07/01/2019 09:00 655.52 0.00 65.7 78.0 --
07/01/2019 08:00 655.53 0.00 58.7 100.0 --
07/01/2019 07:00 655.52 0.00 59.9 96.0 --
07/01/2019 06:00 655.53 0.00 58.5 100.0 --
07/01/2019 05:00 655.53 0.00 61.7 94.0 --
07/01/2019 04:00 655.53 0.00 61.9 91.0 --
07/01/2019 03:00 655.53 0.00 61.9 91.0 --
07/01/2019 02:00 655.53 0.00 61.6 97.0 --
07/01/2019 01:00 655.53 0.00 60.5 100.0 --
07/01/2019 00:00 655.53 0.00 60.5 100.0 --
06/30/2019 23:00 655.53 0.00 60.7 100.0 --
06/30/2019 22:00 655.53 0.00 65.9 83.0 --
06/30/2019 21:00 655.53 0.00 70.0 70.0 --
06/30/2019 20:00 655.53 0.00 70.3 63.0 --
06/30/2019 19:00 655.53 0.00 70.3 63.0 --
06/30/2019 18:00 655.54 0.00 71.7 63.0 --
06/30/2019 17:00 655.53 0.00 66.7 96.0 --
06/30/2019 16:00 655.54 0.02 64.7 100.0 --
06/30/2019 15:00 655.54 0.00 64.2 90.0 --
06/30/2019 14:00 655.54 0.46 64.2 90.0 --
06/30/2019 13:00 655.54 0.00 69.4 69.0 --
06/30/2019 12:00 655.53 0.00 65.0 84.0 --
06/30/2019 11:00 655.53 0.01 63.9 87.0 --
06/30/2019 10:00 655.53 0.00 66.3 82.0 --
06/30/2019 09:00 655.53 0.00 66.3 82.0 --
06/30/2019 08:00 655.53 0.00 62.0 100.0 --
06/30/2019 07:00 655.53 0.00 59.0 100.0 --
06/30/2019 06:00 655.52 0.00 61.6 100.0 --
06/30/2019 05:00 655.53 0.00 62.8 100.0 --
06/30/2019 04:00 655.53 0.00 62.8 100.0 --
06/30/2019 03:00 655.53 0.03 62.8 100.0 --
06/30/2019 02:00 655.52 0.00 64.6 100.0 --
06/30/2019 01:00 655.54 0.01 68.8 100.0 --
06/30/2019 00:00 655.51 0.00 69.3 100.0 --
06/29/2019 23:00 655.51 0.00 69.3 100.0 --
06/29/2019 22:00 655.51 0.00 70.5 100.0 --
06/29/2019 21:00 655.52 0.00 71.6 89.0 --
06/29/2019 20:00 655.50 0.00 75.5 76.0 --
06/29/2019 19:00 655.51 0.00 78.3 61.0 --
06/29/2019 18:00 655.51 0.00 78.3 61.0 --
06/29/2019 17:00 655.51 0.00 76.8 68.0 --
06/29/2019 16:00 655.51 0.00 76.1 69.0 --
06/29/2019 15:00 655.51 0.00 73.5 80.0 --
06/29/2019 14:00 655.51 0.00 71.7 78.0 --
06/29/2019 13:00 655.52 0.00 68.7 91.0 --
06/29/2019 12:00 655.52 0.00 67.7 100.0 --
06/29/2019 11:00 655.52 0.00 67.7 100.0 --
06/29/2019 10:00 655.52 0.06 66.3 100.0 --
06/29/2019 09:00 655.50 0.00 65.9 100.0 --
06/29/2019 08:00 655.51 0.01 65.7 100.0 --
06/29/2019 07:00 655.51 0.00 67.6 84.0 --
06/29/2019 06:00 655.51 0.00 67.6 84.0 --
06/29/2019 05:00 655.51 0.00 68.2 82.0 --
06/29/2019 04:00 655.50 0.00 68.0 86.0 --
06/29/2019 03:00 655.52 0.00 69.3 82.0 --
06/29/2019 02:00 655.51 0.00 69.3 81.0 --
06/29/2019 01:00 655.51 0.00 69.3 81.0 --
06/29/2019 00:00 655.52 0.00 69.6 80.0 --
06/28/2019 23:00 655.51 0.00 73.1 69.0 --
06/28/2019 22:00 655.51 0.00 73.1 69.0 --
06/28/2019 21:00 655.50 0.00 73.4 69.0 --
06/28/2019 20:00 655.52 0.00 80.6 50.0 --
06/28/2019 19:00 655.53 0.00 85.3 31.0 --
06/28/2019 18:00 655.51 0.00 84.8 36.0 --
06/28/2019 17:00 655.52 0.00 84.7 32.0 --
06/28/2019 16:00 655.51 0.00 83.9 33.0 --
06/28/2019 15:00 655.51 0.00 83.9 33.0 --
06/28/2019 14:00 655.52 0.00 82.1 37.0 --
06/28/2019 13:00 655.53 0.00 78.8 50.0 --
06/28/2019 12:00 655.53 0.00 77.3 52.0 --
06/28/2019 11:00 655.53 0.00 75.3 58.0 --
06/28/2019 10:00 655.53 0.00 75.2 65.0 --
06/28/2019 09:00 655.53 0.00 66.3 83.0 --
06/28/2019 08:00 655.53 0.00 60.6 100.0 --
06/28/2019 07:00 655.53 0.00 60.6 100.0 --
06/28/2019 06:00 655.53 0.00 60.9 100.0 --
06/28/2019 05:00 655.54 0.00 61.8 98.0 --
06/28/2019 04:00 655.54 0.00 63.4 92.0 --
06/28/2019 03:00 655.53 0.00 64.0 99.0 --
06/28/2019 02:00 655.53 0.00 64.0 99.0 --
06/28/2019 01:00 655.54 0.00 64.8 100.0 --
06/28/2019 00:00 655.53 0.00 67.5 94.0 --
06/27/2019 23:00 655.54 0.00 70.1 88.0 --
06/27/2019 22:00 655.54 0.00 74.0 79.0 --
06/27/2019 21:00 655.54 0.00 74.0 79.0 --
06/27/2019 20:00 655.54 0.00 75.0 73.0 --
06/27/2019 19:00 655.54 0.00 79.4 62.0 --
06/27/2019 18:00 655.54 0.00 83.6 36.0 --
06/27/2019 17:00 655.55 0.00 81.7 46.0 --
06/27/2019 16:00 655.55 0.00 81.7 46.0 --
06/27/2019 15:00 655.55 0.00 80.6 49.0 --
06/27/2019 14:00 655.55 0.00 79.5 54.0 --
06/27/2019 13:00 655.55 0.00 78.4 53.0 --
06/27/2019 12:00 655.55 0.00 74.5 70.0 --
06/27/2019 11:00 655.55 0.00 74.5 70.0 --
06/27/2019 10:00 655.56 0.00 68.6 88.0 --
06/27/2019 09:00 655.55 0.00 64.5 100.0 --
06/27/2019 08:00 655.54 0.00 63.6 100.0 --
06/27/2019 07:00 655.56 0.00 62.9 100.0 --
06/27/2019 06:00 655.56 0.00 62.9 100.0 --
06/27/2019 05:00 655.55 0.00 62.6 100.0 --
06/27/2019 04:00 655.55 0.00 62.8 100.0 --
06/27/2019 03:00 655.54 0.00 63.3 100.0 --
06/27/2019 02:00 655.55 0.00 66.7 100.0 --
06/27/2019 01:00 655.55 0.00 69.3 100.0 --
06/27/2019 00:00 655.55 0.00 70.0 100.0 --
06/26/2019 23:00 655.55 0.00 68.8 100.0 --
06/26/2019 22:00 655.56 0.00 71.8 87.0 --
06/26/2019 21:00 655.56 0.00 80.4 63.0 --
06/26/2019 20:00 655.56 0.00 80.4 63.0 --
06/26/2019 19:00 655.56 0.00 80.2 63.0 --
06/26/2019 18:00 655.56 0.00 81.7 47.0 --
06/26/2019 17:00 655.56 0.00 79.1 52.0 --
06/26/2019 16:00 655.56 0.00 79.3 60.0 --
06/26/2019 15:00 655.56 0.00 79.3 60.0 --
06/26/2019 14:00 655.55 0.00 77.5 64.0 --
06/26/2019 13:00 655.56 0.00 76.3 62.0 --
06/26/2019 12:00 655.56 0.00 72.5 75.0 --
06/26/2019 11:00 655.56 0.00 68.6 100.0 --
06/26/2019 10:00 655.56 0.00 68.6 100.0 --
06/26/2019 09:00 655.57 0.00 65.1 100.0 --
06/26/2019 08:00 655.56 0.00 62.3 100.0 --
06/26/2019 07:00 655.56 0.00 63.4 100.0 --
06/26/2019 06:00 655.57 0.00 63.4 100.0 --
06/26/2019 05:00 655.57 0.00 63.4 100.0 --
06/26/2019 04:00 655.56 0.00 63.7 100.0 --
06/26/2019 03:00 655.55 0.00 63.7 100.0 --
06/26/2019 02:00 655.55 0.00 64.2 100.0 --
06/26/2019 01:00 655.56 0.00 64.2 100.0 --
06/26/2019 00:00 655.56 0.00 64.2 100.0 --
06/25/2019 23:00 655.56 0.00 64.5 100.0 --
06/25/2019 22:00 655.55 0.00 66.3 100.0 --
06/25/2019 21:00 655.56 0.00 67.6 100.0 --
06/25/2019 20:00 655.56 0.09 64.8 100.0 --
06/25/2019 19:00 655.56 0.07 63.8 100.0 --
06/25/2019 18:00 655.55 0.04 63.9 100.0 --
06/25/2019 17:00 655.54 0.00 63.3 100.0 --
06/25/2019 16:00 655.55 0.02 62.4 100.0 --
06/25/2019 15:00 655.55 0.00 61.6 100.0 --
06/25/2019 14:00 655.55 0.03 61.6 100.0 --
06/25/2019 13:00 655.55 0.02 61.7 100.0 --
06/25/2019 12:00 655.54 0.00 61.3 88.0 --
06/25/2019 11:00 655.54 0.00 61.3 82.0 --
06/25/2019 10:00 655.54 0.00 59.7 83.0 --
06/25/2019 09:00 655.54 0.00 57.6 100.0 --
06/25/2019 08:00 655.54 0.00 54.9 100.0 --
06/25/2019 07:00 655.55 0.00 54.6 100.0 --
06/25/2019 06:00 655.56 0.00 53.3 100.0 --
06/25/2019 05:00 655.55 0.00 54.3 100.0 --
06/25/2019 04:00 655.55 0.00 54.3 100.0 --
06/25/2019 03:00 655.55 0.00 55.6 100.0 --
06/25/2019 02:00 655.54 0.00 59.8 94.0 --
06/25/2019 01:00 655.54 0.00 62.8 85.0 --
06/25/2019 00:00 655.54 0.00 62.8 79.0 --
06/24/2019 23:00 655.55 0.00 67.6 70.0 --
06/24/2019 22:00 655.54 0.00 70.3 71.0 --
06/24/2019 21:00 655.55 0.00 74.2 61.0 --
06/24/2019 20:00 655.55 0.00 77.7 46.0 --
06/24/2019 19:00 655.55 0.00 81.8 32.0 --
06/24/2019 18:00 655.54 0.00 80.7 30.0 --
06/24/2019 17:00 655.55 0.00 80.1 29.0 --
06/24/2019 16:00 655.55 0.00 78.4 32.0 --
06/24/2019 15:00 655.55 0.00 78.4 32.0 --
06/24/2019 14:00 655.54 0.00 77.2 31.0 --
06/24/2019 13:00 655.55 0.00 76.4 34.0 --
06/24/2019 12:00 655.55 0.00 74.4 35.0 --
06/24/2019 11:00 655.55 0.00 70.0 57.0 --
06/24/2019 10:00 655.55 0.00 66.6 70.0 --
06/24/2019 09:00 655.55 0.00 58.5 89.0 --
06/24/2019 08:00 655.55 0.00 56.9 100.0 --
06/24/2019 07:00 655.55 0.00 57.1 96.0 --
06/24/2019 06:00 655.54 0.00 57.6 91.0 --
06/24/2019 05:00 655.54 0.00 57.6 91.0 --
06/24/2019 04:00 655.55 0.00 58.3 85.0 --
06/24/2019 03:00 655.55 0.00 60.0 82.0 --
06/24/2019 02:00 655.55 0.00 60.5 80.0 --
06/24/2019 01:00 655.55 0.00 61.9 78.0 --
06/24/2019 00:00 655.55 0.00 61.9 78.0 --
06/23/2019 23:00 655.55 0.00 63.8 72.0 --
06/23/2019 22:00 655.56 0.00 72.1 51.0 --
06/23/2019 21:00 655.55 0.00 79.7 31.0 --
06/23/2019 20:00 655.57 0.00 80.1 33.0 --
06/23/2019 19:00 655.57 0.00 80.1 33.0 --
06/23/2019 18:00 655.56 0.00 79.9 34.0 --
06/23/2019 17:00 655.52 0.00 77.8 34.0 --
06/23/2019 16:00 655.55 0.00 76.2 36.0 --
06/23/2019 15:00 655.56 0.00 75.8 35.0 --
06/23/2019 14:00 655.56 0.00 75.8 35.0 --
06/23/2019 13:00 655.58 0.00 74.3 42.0 --
06/23/2019 12:00 655.59 0.00 71.5 45.0 --
06/23/2019 11:00 655.58 0.00 68.7 51.0 --
06/23/2019 10:00 655.58 0.00 64.5 59.0 --
06/23/2019 09:00 655.58 0.00 64.5 59.0 --
06/23/2019 08:00 655.58 0.00 60.9 68.0 --
06/23/2019 07:00 655.58 0.00 58.1 73.0 --
06/23/2019 06:00 655.57 0.00 54.5 88.0 --
06/23/2019 05:00 655.58 0.00 58.3 75.0 --
06/23/2019 04:00 655.58 0.00 58.3 75.0 --
06/23/2019 03:00 655.59 0.00 59.4 73.0 --
06/23/2019 02:00 655.58 0.00 57.2 81.0 --
06/23/2019 01:00 655.58 0.00 60.1 74.0 --
06/23/2019 00:00 655.59 0.00 59.9 71.0 --
06/22/2019 23:00 655.59 0.00 59.9 71.0 --
06/22/2019 22:00 655.58 0.00 62.4 66.0 --
06/22/2019 21:00 655.58 0.00 72.6 37.0 --
06/22/2019 20:00 655.60 0.00 73.2 40.0 --
06/22/2019 19:00 655.60 0.00 73.6 38.0 --
06/22/2019 18:00 655.61 0.00 73.4 40.0 --
06/22/2019 17:00 655.59 0.00 70.0 50.0 --
06/22/2019 16:00 655.59 0.00 70.0 50.0 --
06/22/2019 15:00 655.61 0.00 72.4 42.0 --
06/22/2019 14:00 655.61 0.00 71.4 45.0 --
06/22/2019 13:00 655.61 0.00 69.8 50.0 --
06/22/2019 12:00 655.60 0.00 68.9 53.0 --
06/22/2019 11:00 655.61 0.00 66.8 55.0 --
06/22/2019 10:00 655.61 0.00 64.6 62.0 --
06/22/2019 09:00 655.61 0.00 58.7 77.0 --
06/22/2019 08:00 655.61 0.00 58.7 77.0 --
06/22/2019 07:00 655.61 0.00 57.6 77.0 --
06/22/2019 06:00 655.60 0.00 59.8 74.0 --
06/22/2019 05:00 655.61 0.00 60.6 70.0 --
06/22/2019 04:00 655.60 0.00 59.5 75.0 --
06/22/2019 03:00 655.60 0.00 59.5 75.0 --
06/22/2019 02:00 655.60 0.00 63.0 64.0 --
06/22/2019 01:00 655.61 0.00 64.8 62.0 --
06/22/2019 00:00 655.62 0.00 65.5 64.0 --
06/21/2019 23:00 655.61 0.00 65.2 68.0 --
06/21/2019 22:00 655.61 0.00 65.2 68.0 --
06/21/2019 21:00 655.60 0.00 67.3 61.0 --
06/21/2019 20:00 655.60 0.00 69.3 64.0 --
06/21/2019 19:00 655.61 0.00 68.5 66.0 --
06/21/2019 18:00 655.60 0.00 67.8 69.0 --
06/21/2019 17:00 655.60 0.00 67.8 69.0 --
06/21/2019 16:00 655.60 0.00 66.2 74.0 --
06/21/2019 15:00 655.62 0.01 64.2 84.0 --
06/21/2019 14:00 655.59 0.00 64.3 92.0 --
06/21/2019 13:00 655.61 0.00 63.6 100.0 --
06/21/2019 12:00 655.60 0.00 63.6 100.0 --
06/21/2019 11:00 655.59 0.00 62.0 100.0 --
06/21/2019 10:00 655.59 0.00 62.0 100.0 --
06/21/2019 09:00 655.60 0.00 61.1 100.0 --
06/21/2019 08:00 655.60 0.00 60.1 100.0 --
06/21/2019 07:00 655.60 0.00 60.1 100.0 --
06/21/2019 06:00 655.60 0.02 60.0 100.0 --
06/21/2019 05:00 655.59 0.00 60.0 100.0 --
06/21/2019 04:00 655.59 0.00 60.6 100.0 --
06/21/2019 03:00 655.59 0.00 61.1 100.0 --
06/21/2019 02:00 655.59 0.01 61.1 100.0 --
06/21/2019 01:00 655.59 0.09 61.2 100.0 --
06/21/2019 00:00 655.59 0.00 62.9 100.0 --
06/20/2019 23:00 655.59 0.00 63.3 100.0 --
06/20/2019 22:00 655.58 0.00 64.6 100.0 --
06/20/2019 21:00 655.58 0.00 64.6 100.0 --
06/20/2019 20:00 655.58 0.00 65.7 100.0 --
06/20/2019 19:00 -- -- -- -- --
06/20/2019 18:00 -- -- -- -- --
06/20/2019 17:00 -- -- -- -- --